sensor_id;sensor_type;location;lat;lon;timestamp;pressure;altitude;pressure_sealevel;temperature;humidity
82249;BME280;71851;49.092;18.918;2023-09-19T00:02:18;96682.50;;;20.18;75.13
82249;BME280;71851;49.092;18.918;2023-09-19T00:05:19;96685.16;;;20.18;74.52
82249;BME280;71851;49.092;18.918;2023-09-19T00:08:24;96686.78;;;20.19;74.24
82249;BME280;71851;49.092;18.918;2023-09-19T00:11:24;96676.97;;;19.93;75.19
82249;BME280;71851;49.092;18.918;2023-09-19T00:14:26;96669.59;;;20.05;75.11
82249;BME280;71851;49.092;18.918;2023-09-19T00:17:27;96674.44;;;20.08;75.45
82249;BME280;71851;49.092;18.918;2023-09-19T00:20:30;96660.28;;;20.07;75.47
82249;BME280;71851;49.092;18.918;2023-09-19T00:23:31;96659.78;;;20.10;74.75
82249;BME280;71851;49.092;18.918;2023-09-19T00:26:34;96661.88;;;20.08;75.27
82249;BME280;71851;49.092;18.918;2023-09-19T00:29:34;96657.09;;;20.10;74.86
82249;BME280;71851;49.092;18.918;2023-09-19T00:32:35;96657.91;;;20.11;74.93
82249;BME280;71851;49.092;18.918;2023-09-19T00:35:37;96660.84;;;20.09;74.97
82249;BME280;71851;49.092;18.918;2023-09-19T00:38:38;96656.00;;;20.01;75.18
82249;BME280;71851;49.092;18.918;2023-09-19T00:41:38;96656.75;;;19.97;75.16
82249;BME280;71851;49.092;18.918;2023-09-19T00:44:39;96646.38;;;20.00;75.42
82249;BME280;71851;49.092;18.918;2023-09-19T00:47:42;96645.06;;;19.98;74.75
82249;BME280;71851;49.092;18.918;2023-09-19T00:50:45;96643.47;;;20.02;75.18
82249;BME280;71851;49.092;18.918;2023-09-19T00:53:46;96640.84;;;20.07;74.52
82249;BME280;71851;49.092;18.918;2023-09-19T00:56:47;96641.38;;;20.04;74.63
82249;BME280;71851;49.092;18.918;2023-09-19T00:59:51;96641.84;;;20.01;74.62
82249;BME280;71851;49.092;18.918;2023-09-19T01:02:55;96636.00;;;19.99;74.91
82249;BME280;71851;49.092;18.918;2023-09-19T01:05:56;96632.78;;;19.97;74.94
82249;BME280;71851;49.092;18.918;2023-09-19T01:08:56;96631.66;;;19.88;75.29
82249;BME280;71851;49.092;18.918;2023-09-19T01:12:01;96632.97;;;19.90;75.07
82249;BME280;71851;49.092;18.918;2023-09-19T01:15:09;96630.88;;;19.92;75.76
82249;BME280;71851;49.092;18.918;2023-09-19T01:18:27;96631.41;;;19.94;74.79
82249;BME280;71851;49.092;18.918;2023-09-19T01:25:16;96631.72;;;19.98;75.09
82249;BME280;71851;49.092;18.918;2023-09-19T01:28:45;96620.53;;;19.96;75.23
82249;BME280;71851;49.092;18.918;2023-09-19T01:31:54;96625.84;;;19.96;75.48
82249;BME280;71851;49.092;18.918;2023-09-19T01:34:57;96623.75;;;19.98;74.93
82249;BME280;71851;49.092;18.918;2023-09-19T01:38:05;96620.53;;;19.96;74.70
82249;BME280;71851;49.092;18.918;2023-09-19T01:41:11;96621.31;;;19.96;74.67
82249;BME280;71851;49.092;18.918;2023-09-19T01:44:19;96617.06;;;19.95;74.57
82249;BME280;71851;49.092;18.918;2023-09-19T01:47:40;96618.97;;;20.00;74.79
82249;BME280;71851;49.092;18.918;2023-09-19T01:50:54;96622.16;;;20.02;74.62
82249;BME280;71851;49.092;18.918;2023-09-19T01:54:10;96617.59;;;19.97;75.13
82249;BME280;71851;49.092;18.918;2023-09-19T01:57:25;96615.97;;;19.96;75.10
82249;BME280;71851;49.092;18.918;2023-09-19T02:00:29;96618.91;;;19.95;75.25
82249;BME280;71851;49.092;18.918;2023-09-19T02:03:31;96612.28;;;19.97;74.83
82249;BME280;71851;49.092;18.918;2023-09-19T02:06:32;96613.31;;;19.96;75.69
82249;BME280;71851;49.092;18.918;2023-09-19T02:09:34;96618.97;;;20.00;75.08
82249;BME280;71851;49.092;18.918;2023-09-19T02:12:35;96615.75;;;19.98;75.23
82249;BME280;71851;49.092;18.918;2023-09-19T02:15:37;96612.00;;;19.94;75.78
82249;BME280;71851;49.092;18.918;2023-09-19T02:18:39;96612.78;;;19.94;75.76
82249;BME280;71851;49.092;18.918;2023-09-19T02:41:20;96604.50;;;19.91;76.12
82249;BME280;71851;49.092;18.918;2023-09-19T02:44:21;96597.53;;;19.85;76.00
82249;BME280;71851;49.092;18.918;2023-09-19T02:47:22;96599.38;;;19.84;76.18
82249;BME280;71851;49.092;18.918;2023-09-19T02:50:23;96598.06;;;19.87;76.21
82249;BME280;71851;49.092;18.918;2023-09-19T02:53:23;96600.75;;;19.87;76.36
82249;BME280;71851;49.092;18.918;2023-09-19T02:56:24;96593.28;;;19.84;76.48
82249;BME280;71851;49.092;18.918;2023-09-19T02:59:25;96596.41;;;19.76;73.70
82249;BME280;71851;49.092;18.918;2023-09-19T03:59:46;96585.44;;;19.72;74.12
82249;BME280;71851;49.092;18.918;2023-09-19T04:02:47;96587.31;;;19.72;74.72
82249;BME280;71851;49.092;18.918;2023-09-19T04:05:48;96583.31;;;19.69;74.55
82249;BME280;71851;49.092;18.918;2023-09-19T04:08:49;96580.34;;;19.66;75.04
82249;BME280;71851;49.092;18.918;2023-09-19T04:11:49;96581.41;;;19.65;75.05
82249;BME280;71851;49.092;18.918;2023-09-19T04:14:50;96578.44;;;19.61;75.05
82249;BME280;71851;49.092;18.918;2023-09-19T04:17:51;96583.78;;;19.61;75.37
82249;BME280;71851;49.092;18.918;2023-09-19T04:20:54;96591.00;;;19.66;74.48
82249;BME280;71851;49.092;18.918;2023-09-19T04:23:56;96596.34;;;19.66;75.02
82249;BME280;71851;49.092;18.918;2023-09-19T04:26:56;96600.31;;;19.68;74.71
82249;BME280;71851;49.092;18.918;2023-09-19T04:29:57;96594.72;;;19.65;75.30
82249;BME280;71851;49.092;18.918;2023-09-19T04:32:59;96597.56;;;19.58;79.66
82249;BME280;71851;49.092;18.918;2023-09-19T04:36:02;96590.13;;;19.60;78.54
82249;BME280;71851;49.092;18.918;2023-09-19T04:39:05;96587.25;;;19.62;77.86
82249;BME280;71851;49.092;18.918;2023-09-19T04:42:07;96586.38;;;19.56;76.79
82249;BME280;71851;49.092;18.918;2023-09-19T04:45:07;96585.59;;;19.56;77.64
82249;BME280;71851;49.092;18.918;2023-09-19T04:48:10;96588.00;;;19.57;76.87
82249;BME280;71851;49.092;18.918;2023-09-19T04:51:11;96591.97;;;19.55;76.97
82249;BME280;71851;49.092;18.918;2023-09-19T04:54:11;96590.13;;;19.60;76.40
82249;BME280;71851;49.092;18.918;2023-09-19T04:57:11;96591.25;;;19.64;75.72
82249;BME280;71851;49.092;18.918;2023-09-19T05:00:17;96597.38;;;19.65;76.00
82249;BME280;71851;49.092;18.918;2023-09-19T05:03:19;96589.66;;;19.68;75.70
82249;BME280;71851;49.092;18.918;2023-09-19T05:06:20;96592.59;;;19.67;76.11
82249;BME280;71851;49.092;18.918;2023-09-19T05:09:24;96592.88;;;19.70;75.20
82249;BME280;71851;49.092;18.918;2023-09-19T05:12:26;96592.66;;;19.72;75.27
82249;BME280;71851;49.092;18.918;2023-09-19T05:15:27;96596.34;;;19.71;75.38
82249;BME280;71851;49.092;18.918;2023-09-19T05:18:27;96604.34;;;19.71;76.14
82249;BME280;71851;49.092;18.918;2023-09-19T05:21:28;96605.66;;;19.68;75.94
82249;BME280;71851;49.092;18.918;2023-09-19T05:24:31;96613.41;;;19.70;75.25
82249;BME280;71851;49.092;18.918;2023-09-19T05:27:31;96615.81;;;19.71;75.25
82249;BME280;71851;49.092;18.918;2023-09-19T05:30:32;96615.19;;;19.64;76.26
82249;BME280;71851;49.092;18.918;2023-09-19T05:33:33;96620.53;;;19.64;75.86
82249;BME280;71851;49.092;18.918;2023-09-19T05:36:33;96632.72;;;19.60;76.18
82249;BME280;71851;49.092;18.918;2023-09-19T05:39:34;96633.28;;;19.62;77.28
82249;BME280;71851;49.092;18.918;2023-09-19T05:42:34;96633.50;;;19.56;78.23
82249;BME280;71851;49.092;18.918;2023-09-19T05:45:35;96633.19;;;19.52;78.52
82249;BME280;71851;49.092;18.918;2023-09-19T05:48:36;96631.91;;;19.55;78.58
82249;BME280;71851;49.092;18.918;2023-09-19T05:51:37;96639.59;;;19.51;78.15
82249;BME280;71851;49.092;18.918;2023-09-19T05:54:37;96628.34;;;19.44;79.27
82249;BME280;71851;49.092;18.918;2023-09-19T05:57:38;96631.50;;;19.41;83.13
82249;BME280;71851;49.092;18.918;2023-09-19T06:00:43;96635.44;;;19.12;80.49
82249;BME280;71851;49.092;18.918;2023-09-19T06:03:44;96639.22;;;18.94;80.20
82249;BME280;71851;49.092;18.918;2023-09-19T06:06:45;96648.31;;;18.77;81.95
82249;BME280;71851;49.092;18.918;2023-09-19T06:09:48;96645.81;;;18.65;81.10
82249;BME280;71851;49.092;18.918;2023-09-19T06:12:49;96651.94;;;18.65;82.22
82249;BME280;71851;49.092;18.918;2023-09-19T06:15:50;96658.91;;;18.72;82.24
82249;BME280;71851;49.092;18.918;2023-09-19T06:18:50;96658.22;;;18.81;83.45
82249;BME280;71851;49.092;18.918;2023-09-19T06:21:52;96650.81;;;18.83;81.67
82249;BME280;71851;49.092;18.918;2023-09-19T06:24:59;96658.06;;;18.88;81.96
82249;BME280;71851;49.092;18.918;2023-09-19T06:28:00;96691.84;;;18.92;81.56
82249;BME280;71851;49.092;18.918;2023-09-19T06:31:05;96694.03;;;18.95;80.98
82249;BME280;71851;49.092;18.918;2023-09-19T06:34:10;96692.66;;;18.93;80.92
82249;BME280;71851;49.092;18.918;2023-09-19T06:37:12;96697.56;;;18.79;78.32
82249;BME280;71851;49.092;18.918;2023-09-19T06:40:12;96693.69;;;18.70;76.76
82249;BME280;71851;49.092;18.918;2023-09-19T06:43:17;96703.28;;;18.71;75.44
82249;BME280;71851;49.092;18.918;2023-09-19T06:46:17;96711.03;;;18.56;75.97
82249;BME280;71851;49.092;18.918;2023-09-19T06:49:18;96730.22;;;18.41;76.33
82249;BME280;71851;49.092;18.918;2023-09-19T06:52:18;96717.66;;;18.37;75.37
82249;BME280;71851;49.092;18.918;2023-09-19T06:55:21;96734.81;;;18.29;76.69
82249;BME280;71851;49.092;18.918;2023-09-19T06:58:25;96746.06;;;18.20;75.72
82249;BME280;71851;49.092;18.918;2023-09-19T07:04:44;96763.47;;;18.11;77.17
82249;BME280;71851;49.092;18.918;2023-09-19T07:07:45;96767.72;;;18.12;76.67
82249;BME280;71851;49.092;18.918;2023-09-19T07:10:48;96778.91;;;18.14;74.07
82249;BME280;71851;49.092;18.918;2023-09-19T07:14:12;96789.06;;;18.17;73.33
82249;BME280;71851;49.092;18.918;2023-09-19T07:17:13;96791.16;;;18.15;75.80
82249;BME280;71851;49.092;18.918;2023-09-19T07:20:16;96785.59;;;18.16;74.40
82249;BME280;71851;49.092;18.918;2023-09-19T07:23:20;96798.00;;;18.11;74.10
82249;BME280;71851;49.092;18.918;2023-09-19T07:26:22;96805.72;;;18.12;72.92
82249;BME280;71851;49.092;18.918;2023-09-19T07:29:23;96822.13;;;18.09;70.80
82249;BME280;71851;49.092;18.918;2023-09-19T07:32:23;96828.66;;;18.02;71.43
82249;BME280;71851;49.092;18.918;2023-09-19T07:35:24;96831.31;;;18.02;71.60
82249;BME280;71851;49.092;18.918;2023-09-19T07:38:25;96839.22;;;18.13;70.94
82249;BME280;71851;49.092;18.918;2023-09-19T07:41:27;96851.59;;;18.24;71.67
82249;BME280;71851;49.092;18.918;2023-09-19T07:44:27;96855.00;;;18.36;73.08
82249;BME280;71851;49.092;18.918;2023-09-19T07:47:27;96855.22;;;18.46;73.54
82249;BME280;71851;49.092;18.918;2023-09-19T07:50:30;96871.63;;;18.60;74.26
82249;BME280;71851;49.092;18.918;2023-09-19T07:53:30;96859.31;;;18.54;73.01
82249;BME280;71851;49.092;18.918;2023-09-19T07:56:31;96862.69;;;18.66;72.60
82249;BME280;71851;49.092;18.918;2023-09-19T07:59:32;96865.16;;;17.95;71.44
82249;BME280;71851;49.092;18.918;2023-09-19T08:02:37;96872.22;;;18.34;73.26
82249;BME280;71851;49.092;18.918;2023-09-19T08:05:40;96880.19;;;18.62;73.27
82249;BME280;71851;49.092;18.918;2023-09-19T08:08:43;96878.47;;;17.83;73.44
82249;BME280;71851;49.092;18.918;2023-09-19T08:11:44;96896.91;;;17.90;74.15
82249;BME280;71851;49.092;18.918;2023-09-19T08:14:45;96893.84;;;18.09;74.47
82249;BME280;71851;49.092;18.918;2023-09-19T08:17:48;96887.53;;;18.27;73.45
82249;BME280;71851;49.092;18.918;2023-09-19T08:20:50;96889.13;;;18.73;74.09
82249;BME280;71851;49.092;18.918;2023-09-19T08:23:51;96890.44;;;18.87;70.70
82249;BME280;71851;49.092;18.918;2023-09-19T08:26:51;96886.94;;;18.53;70.00
82249;BME280;71851;49.092;18.918;2023-09-19T08:29:52;96890.59;;;18.97;70.37
82249;BME280;71851;49.092;18.918;2023-09-19T08:32:59;96899.88;;;19.32;69.70
82249;BME280;71851;49.092;18.918;2023-09-19T08:36:00;96894.06;;;19.52;71.43
82249;BME280;71851;49.092;18.918;2023-09-19T08:39:00;96885.41;;;19.62;70.96
82249;BME280;71851;49.092;18.918;2023-09-19T08:42:01;96888.75;;;19.74;70.45
82249;BME280;71851;49.092;18.918;2023-09-19T08:45:02;96890.34;;;19.75;69.65
82249;BME280;71851;49.092;18.918;2023-09-19T08:51:45;96888.31;;;19.60;69.47
82249;BME280;71851;49.092;18.918;2023-09-19T08:54:48;96892.97;;;19.15;68.00
82249;BME280;71851;49.092;18.918;2023-09-19T08:57:49;96893.13;;;19.25;68.84
82249;BME280;71851;49.092;18.918;2023-09-19T09:00:52;96890.69;;;19.02;68.84
82249;BME280;71851;49.092;18.918;2023-09-19T09:03:55;96885.16;;;19.08;69.69
82249;BME280;71851;49.092;18.918;2023-09-19T09:06:56;96883.16;;;18.99;69.72
82249;BME280;71851;49.092;18.918;2023-09-19T09:09:57;96889.63;;;18.70;69.83
82249;BME280;71851;49.092;18.918;2023-09-19T09:12:58;96886.00;;;18.76;72.13
82249;BME280;71851;49.092;18.918;2023-09-19T09:15:58;96899.28;;;19.09;71.60
82249;BME280;71851;49.092;18.918;2023-09-19T09:19:00;96903.31;;;19.28;70.47
82249;BME280;71851;49.092;18.918;2023-09-19T09:22:08;96898.09;;;19.55;70.71
82249;BME280;71851;49.092;18.918;2023-09-19T09:25:09;96905.03;;;19.77;70.50
82249;BME280;71851;49.092;18.918;2023-09-19T09:28:10;96899.66;;;19.94;69.16
82249;BME280;71851;49.092;18.918;2023-09-19T09:31:24;96900.09;;;19.86;70.36
82249;BME280;71851;49.092;18.918;2023-09-19T09:34:32;96908.22;;;19.96;70.35
82249;BME280;71851;49.092;18.918;2023-09-19T09:37:33;96911.19;;;19.99;66.94
82249;BME280;71851;49.092;18.918;2023-09-19T09:40:49;96914.69;;;20.05;66.99
82249;BME280;71851;49.092;18.918;2023-09-19T09:43:54;96911.34;;;20.14;69.88
82249;BME280;71851;49.092;18.918;2023-09-19T09:46:54;96916.81;;;20.03;70.14
82249;BME280;71851;49.092;18.918;2023-09-19T09:49:59;96927.56;;;20.13;72.70
82249;BME280;71851;49.092;18.918;2023-09-19T09:53:25;96925.72;;;20.13;72.34
82249;BME280;71851;49.092;18.918;2023-09-19T09:56:31;96931.78;;;20.09;70.72
82249;BME280;71851;49.092;18.918;2023-09-19T09:59:52;96937.63;;;20.27;71.70
82249;BME280;71851;49.092;18.918;2023-09-19T10:02:59;96934.28;;;20.37;71.76
82249;BME280;71851;49.092;18.918;2023-09-19T10:06:00;96922.66;;;20.48;70.28
82249;BME280;71851;49.092;18.918;2023-09-19T10:09:11;96932.19;;;20.71;67.20
82249;BME280;71851;49.092;18.918;2023-09-19T10:12:12;96937.34;;;21.09;69.64
82249;BME280;71851;49.092;18.918;2023-09-19T10:15:17;96939.25;;;21.50;68.55
82249;BME280;71851;49.092;18.918;2023-09-19T10:18:22;96943.00;;;21.96;67.59
82249;BME280;71851;49.092;18.918;2023-09-19T10:21:22;96930.34;;;22.53;62.60
82249;BME280;71851;49.092;18.918;2023-09-19T10:24:26;96939.50;;;23.23;61.80
82249;BME280;71851;49.092;18.918;2023-09-19T10:27:29;96929.53;;;23.74;59.42
82249;BME280;71851;49.092;18.918;2023-09-19T10:30:31;96939.00;;;24.30;56.46
82249;BME280;71851;49.092;18.918;2023-09-19T10:33:36;96941.50;;;25.04;58.45
82249;BME280;71851;49.092;18.918;2023-09-19T10:36:37;96944.63;;;25.50;54.76
82249;BME280;71851;49.092;18.918;2023-09-19T10:39:45;96948.63;;;25.81;54.83
82249;BME280;71851;49.092;18.918;2023-09-19T10:42:48;96939.00;;;25.75;53.35
82249;BME280;71851;49.092;18.918;2023-09-19T10:45:51;96940.97;;;25.93;49.95
82249;BME280;71851;49.092;18.918;2023-09-19T10:48:59;96945.44;;;25.97;50.81
82249;BME280;71851;49.092;18.918;2023-09-19T10:52:01;96938.19;;;25.17;49.89
82249;BME280;71851;49.092;18.918;2023-09-19T10:55:02;96941.72;;;24.25;53.10
82249;BME280;71851;49.092;18.918;2023-09-19T10:58:05;96940.72;;;24.60;51.95
82249;BME280;71851;49.092;18.918;2023-09-19T11:01:14;96941.72;;;24.74;51.68
82249;BME280;71851;49.092;18.918;2023-09-19T11:04:30;96937.59;;;25.25;53.17
82249;BME280;71851;49.092;18.918;2023-09-19T11:07:31;96948.88;;;25.56;52.41
82249;BME280;71851;49.092;18.918;2023-09-19T11:10:49;96946.94;;;25.61;50.04
82249;BME280;71851;49.092;18.918;2023-09-19T11:20:22;96944.72;;;26.58;50.47
82249;BME280;71851;49.092;18.918;2023-09-19T11:23:35;96951.66;;;26.82;48.39
82249;BME280;71851;49.092;18.918;2023-09-19T11:26:41;96944.44;;;26.78;48.58
82249;BME280;71851;49.092;18.918;2023-09-19T11:30:26;96954.59;;;27.37;46.71
82249;BME280;71851;49.092;18.918;2023-09-19T11:33:29;96939.69;;;27.85;46.19
82249;BME280;71851;49.092;18.918;2023-09-19T11:36:38;96938.69;;;27.67;43.79
82249;BME280;71851;49.092;18.918;2023-09-19T11:39:43;96938.13;;;27.38;45.65
82249;BME280;71851;49.092;18.918;2023-09-19T13:37:17;96974.88;;;23.50;52.07
82249;BME280;71851;49.092;18.918;2023-09-19T13:40:18;96972.72;;;23.57;53.63
82249;BME280;71851;49.092;18.918;2023-09-19T13:43:18;96978.09;;;23.42;52.46
82249;BME280;71851;49.092;18.918;2023-09-19T13:46:21;96978.88;;;23.62;54.43
82249;BME280;71851;49.092;18.918;2023-09-19T13:49:25;96978.88;;;23.62;55.26
82249;BME280;71851;49.092;18.918;2023-09-19T13:52:26;96989.63;;;23.32;52.85
82249;BME280;71851;49.092;18.918;2023-09-19T13:55:28;96981.56;;;23.37;53.24
82249;BME280;71851;49.092;18.918;2023-09-19T13:58:28;96977.81;;;23.28;52.60
82249;BME280;71851;49.092;18.918;2023-09-19T14:01:31;96980.00;;;23.36;53.30
82249;BME280;71851;49.092;18.918;2023-09-19T14:04:31;96977.84;;;23.33;54.19
82249;BME280;71851;49.092;18.918;2023-09-19T14:07:32;96976.75;;;23.39;53.55
82249;BME280;71851;49.092;18.918;2023-09-19T14:10:32;96977.84;;;23.38;53.29
82249;BME280;71851;49.092;18.918;2023-09-19T14:13:33;96976.75;;;23.49;53.47
82249;BME280;71851;49.092;18.918;2023-09-19T14:16:35;96982.94;;;23.40;52.64
82249;BME280;71851;49.092;18.918;2023-09-19T14:19:35;96990.94;;;23.55;53.26
82249;BME280;71851;49.092;18.918;2023-09-19T14:22:37;96998.16;;;23.59;51.75
82249;BME280;71851;49.092;18.918;2023-09-19T14:25:37;96988.78;;;23.57;50.62
82249;BME280;71851;49.092;18.918;2023-09-19T14:28:39;96993.38;;;23.56;52.77
82249;BME280;71851;49.092;18.918;2023-09-19T14:31:39;97001.13;;;23.48;52.66
82249;BME280;71851;49.092;18.918;2023-09-19T14:34:43;96993.88;;;23.28;52.18
82249;BME280;71851;49.092;18.918;2023-09-19T14:37:44;96996.28;;;23.25;52.66
82249;BME280;71851;49.092;18.918;2023-09-19T14:40:45;96995.78;;;23.33;54.55
82249;BME280;71851;49.092;18.918;2023-09-19T14:43:46;97004.09;;;23.36;54.22
82249;BME280;71851;49.092;18.918;2023-09-19T14:46:46;97006.75;;;23.26;53.01
82249;BME280;71851;49.092;18.918;2023-09-19T14:49:47;97012.63;;;23.23;53.67
82249;BME280;71851;49.092;18.918;2023-09-19T20:01:01;97250.41;;;16.37;72.41
82249;BME280;71851;49.092;18.918;2023-09-19T20:04:02;97262.69;;;16.31;72.28
82249;BME280;71851;49.092;18.918;2023-09-19T20:07:04;97257.88;;;16.22;73.59
82249;BME280;71851;49.092;18.918;2023-09-19T20:10:05;97252.66;;;16.15;73.08
82249;BME280;71851;49.092;18.918;2023-09-19T20:13:07;97257.53;;;16.11;72.83
82249;BME280;71851;49.092;18.918;2023-09-19T20:16:07;97259.44;;;16.04;72.74
82249;BME280;71851;49.092;18.918;2023-09-19T20:19:08;97261.38;;;15.91;73.53
82249;BME280;71851;49.092;18.918;2023-09-19T20:22:09;97267.94;;;15.82;74.02
82249;BME280;71851;49.092;18.918;2023-09-19T20:25:12;97264.69;;;15.80;73.49
82249;BME280;71851;49.092;18.918;2023-09-19T20:28:13;97268.41;;;15.72;73.59
82249;BME280;71851;49.092;18.918;2023-09-19T20:31:14;97266.19;;;15.69;73.58
82249;BME280;71851;49.092;18.918;2023-09-19T20:34:15;97273.53;;;15.67;73.11
82249;BME280;71851;49.092;18.918;2023-09-19T20:37:15;97277.44;;;15.65;73.34
82249;BME280;71851;49.092;18.918;2023-09-19T20:40:16;97279.47;;;15.63;73.40
82249;BME280;71851;49.092;18.918;2023-09-19T20:43:21;97283.72;;;15.64;73.21
82249;BME280;71851;49.092;18.918;2023-09-19T20:46:21;97282.31;;;15.61;73.05
82249;BME280;71851;49.092;18.918;2023-09-19T20:49:23;97288.78;;;15.65;72.97
82249;BME280;71851;49.092;18.918;2023-09-19T20:52:24;97292.84;;;15.68;72.89
82249;BME280;71851;49.092;18.918;2023-09-19T20:55:24;97291.66;;;15.64;72.38
82249;BME280;71851;49.092;18.918;2023-09-19T20:58:25;97288.19;;;15.63;72.13
82249;BME280;71851;49.092;18.918;2023-09-19T21:01:25;97291.25;;;15.67;72.50
82249;BME280;71851;49.092;18.918;2023-09-19T21:04:26;97289.22;;;15.69;72.28
82249;BME280;71851;49.092;18.918;2023-09-19T21:07:27;97292.44;;;15.71;72.36
82249;BME280;71851;49.092;18.918;2023-09-19T21:10:29;97302.38;;;15.75;72.25
82249;BME280;71851;49.092;18.918;2023-09-19T21:13:30;97300.13;;;15.79;72.19
82249;BME280;71851;49.092;18.918;2023-09-19T21:16:30;97300.06;;;15.85;72.42
82249;BME280;71851;49.092;18.918;2023-09-19T21:19:31;97292.91;;;15.92;72.08
82249;BME280;71851;49.092;18.918;2023-09-19T21:22:32;97290.44;;;15.97;71.87
82249;BME280;71851;49.092;18.918;2023-09-19T21:25:32;97292.63;;;16.07;71.89
82249;BME280;71851;49.092;18.918;2023-09-19T21:28:34;97294.22;;;16.08;72.08
82249;BME280;71851;49.092;18.918;2023-09-19T21:31:34;97286.31;;;16.01;72.36
82249;BME280;71851;49.092;18.918;2023-09-19T21:34:35;97291.22;;;16.04;72.52
82249;BME280;71851;49.092;18.918;2023-09-19T21:37:36;97297.09;;;16.06;72.49
82249;BME280;71851;49.092;18.918;2023-09-19T21:40:36;97294.00;;;16.09;72.69
82249;BME280;71851;49.092;18.918;2023-09-19T21:43:37;97288.56;;;16.04;73.34
82249;BME280;71851;49.092;18.918;2023-09-19T21:46:38;97295.31;;;16.00;73.27
82249;BME280;71851;49.092;18.918;2023-09-19T21:49:39;97298.97;;;15.99;73.78
82249;BME280;71851;49.092;18.918;2023-09-19T21:52:40;97299.44;;;15.90;74.10
82249;BME280;71851;49.092;18.918;2023-09-19T21:55:40;97302.09;;;15.90;74.09
82249;BME280;71851;49.092;18.918;2023-09-19T22:12:51;97293.94;;;15.91;74.53
82249;BME280;71851;49.092;18.918;2023-09-19T22:15:59;97291.75;;;15.82;74.41
82249;BME280;71851;49.092;18.918;2023-09-19T22:19:00;97293.81;;;15.80;74.25
82249;BME280;71851;49.092;18.918;2023-09-19T22:22:01;97302.97;;;15.77;74.66
82249;BME280;71851;49.092;18.918;2023-09-19T22:25:03;97294.84;;;15.79;74.66
82249;BME280;71851;49.092;18.918;2023-09-19T22:28:08;97299.72;;;15.75;74.08
82249;BME280;71851;49.092;18.918;2023-09-19T22:31:22;97303.81;;;15.71;74.23
82249;BME280;71851;49.092;18.918;2023-09-19T22:34:23;97293.47;;;15.70;74.68
82249;BME280;71851;49.092;18.918;2023-09-19T22:37:24;97298.16;;;15.68;74.37
82249;BME280;71851;49.092;18.918;2023-09-19T22:40:28;97289.84;;;15.64;74.61
82249;BME280;71851;49.092;18.918;2023-09-19T22:43:31;97299.81;;;15.62;74.50
82249;BME280;71851;49.092;18.918;2023-09-19T22:46:35;97301.25;;;15.58;74.62
82249;BME280;71851;49.092;18.918;2023-09-19T22:49:36;97306.34;;;15.53;74.54
82249;BME280;71851;49.092;18.918;2023-09-19T22:52:38;97305.00;;;15.44;75.17
82249;BME280;71851;49.092;18.918;2023-09-19T22:55:38;97303.38;;;15.37;75.31
82249;BME280;71851;49.092;18.918;2023-09-19T22:58:41;97300.34;;;15.33;75.11
82249;BME280;71851;49.092;18.918;2023-09-19T23:01:42;97304.63;;;15.27;75.50
82249;BME280;71851;49.092;18.918;2023-09-19T23:04:43;97300.81;;;15.17;76.03
82249;BME280;71851;49.092;18.918;2023-09-19T23:07:43;97307.94;;;15.10;75.81
82249;BME280;71851;49.092;18.918;2023-09-19T23:10:50;97310.19;;;15.06;75.78
82249;BME280;71851;49.092;18.918;2023-09-19T23:13:52;97316.31;;;15.00;75.69
82249;BME280;71851;49.092;18.918;2023-09-19T23:16:52;97312.47;;;14.96;76.40
82249;BME280;71851;49.092;18.918;2023-09-19T23:20:00;97314.72;;;14.93;76.07
82249;BME280;71851;49.092;18.918;2023-09-19T23:23:09;97318.13;;;14.93;76.22
82249;BME280;71851;49.092;18.918;2023-09-19T23:26:15;97321.22;;;14.97;76.38
82249;BME280;71851;49.092;18.918;2023-09-19T23:29:16;97315.50;;;15.00;75.87
82249;BME280;71851;49.092;18.918;2023-09-19T23:32:19;97319.97;;;14.99;75.92
82249;BME280;71851;49.092;18.918;2023-09-19T23:35:21;97316.31;;;15.00;75.66
82249;BME280;71851;49.092;18.918;2023-09-19T23:38:23;97323.44;;;14.93;75.68
82249;BME280;71851;49.092;18.918;2023-09-19T23:41:23;97324.25;;;14.87;75.41
82249;BME280;71851;49.092;18.918;2023-09-19T23:44:25;97320.78;;;14.93;75.22
82249;BME280;71851;49.092;18.918;2023-09-19T23:47:25;97324.47;;;14.92;75.26
82249;BME280;71851;49.092;18.918;2023-09-19T23:50:26;97327.28;;;14.97;75.73
82249;BME280;71851;49.092;18.918;2023-09-19T23:53:32;97325.66;;;14.96;75.68
82249;BME280;71851;49.092;18.918;2023-09-19T23:56:33;97321.00;;;14.98;74.96
82249;BME280;71851;49.092;18.918;2023-09-19T23:59:34;97313.28;;;14.97;74.98
